Time;durP1;ratioP1;P1;durP2;ratioP2;P2;SDS_P1;SDS_P2;PMS_P1;PMS_P2;Temp;Humidity;BMP_temperature;BMP_pressure;BME280_temperature;BME280_humidity;BME280_pressure;Samples;Min_cycle;Max_cycle;Signal;HPM_P1;HPM_P2
2022/06/12 00:01:47;;;;;;;6.87;4.97;;;18.80;89.00;;;;;;4969173;28;20054;-72
2022/06/12 00:04:12;;;;;;;7.30;5.20;;;18.70;89.00;;;;;;5002299;28;20026;-71
2022/06/12 00:06:38;;;;;;;10.77;6.57;;;18.70;88.70;;;;;;5002337;28;20028;-71
2022/06/12 00:09:04;;;;;;;6.87;5.37;;;18.70;88.40;;;;;;4985199;28;20026;-71
2022/06/12 00:11:30;;;;;;;7.67;5.27;;;18.70;88.90;;;;;;5002492;28;20026;-71
2022/06/12 00:13:59;;;;;;;6.13;5.23;;;18.60;89.80;;;;;;4984791;28;20301;-71
2022/06/12 00:16:26;;;;;;;6.57;5.15;;;18.60;89.40;;;;;;4969601;28;20280;-71
2022/06/12 00:18:52;;;;;;;5.70;4.88;;;18.60;88.80;;;;;;4957191;28;20042;-71
2022/06/12 00:21:18;;;;;;;5.83;4.83;;;18.50;89.00;;;;;;5006162;28;20018;-71
2022/06/12 00:23:51;;;;;;;9.23;5.57;;;18.50;89.60;;;;;;4988582;28;20291;-72
2022/06/12 00:26:31;;;;;;;9.73;5.72;;;18.50;90.00;;;;;;4973774;28;20030;-72
2022/06/12 00:29:20;;;;;;;9.50;5.43;;;18.50;90.40;;;;;;4973291;28;20329;-71
2022/06/12 00:31:59;;;;;;;8.90;5.55;;;18.50;90.20;;;;;;4975842;28;20030;-70
2022/06/12 00:34:29;;;;;;;10.07;5.85;;;18.40;90.00;;;;;;4988624;28;20018;-70
2022/06/12 00:36:55;;;;;;;9.80;5.70;;;18.40;90.00;;;;;;4968357;28;20029;-70
2022/06/12 00:39:21;;;;;;;9.43;5.53;;;18.30;90.10;;;;;;4969151;28;20035;-71
2022/06/12 00:41:49;;;;;;;7.88;5.57;;;18.30;90.20;;;;;;4986387;28;20261;-71
2022/06/12 00:44:18;;;;;;;9.93;5.80;;;18.30;90.10;;;;;;4985961;28;20027;-71
2022/06/12 00:46:49;;;;;;;9.13;5.70;;;18.20;90.40;;;;;;4989172;28;20320;-71
2022/06/12 00:49:31;;;;;;;9.15;6.63;;;18.20;90.10;;;;;;5025613;28;20026;-71
2022/06/12 00:52:20;;;;;;;6.80;4.97;;;18.10;90.60;;;;;;4991707;28;20207;-71
2022/06/12 00:54:49;;;;;;;7.70;5.65;;;18.10;91.20;;;;;;4976568;28;20029;-71
2022/06/12 00:57:14;;;;;;;9.10;6.32;;;18.00;91.10;;;;;;4958521;28;20101;-72
2022/06/12 01:00:04;;;;;;;9.70;5.40;;;18.00;91.10;;;;;;4990215;28;20077;-71
2022/06/12 01:02:33;;;;;;;8.30;6.18;;;18.00;90.70;;;;;;4960967;28;20329;-71
2022/06/12 01:07:49;;;;;;;7.57;5.55;;;17.90;91.50;;;;;;4993470;28;20077;-71
2022/06/12 01:10:16;;;;;;;8.55;5.63;;;17.80;91.40;;;;;;4959214;28;20022;-71
2022/06/12 01:12:50;;;;;;;6.65;5.78;;;17.80;92.00;;;;;;4972821;28;20030;-71
2022/06/12 01:15:23;;;;;;;7.35;6.28;;;17.70;91.60;;;;;;4956799;28;20030;-71
2022/06/12 01:17:49;;;;;;;7.80;6.25;;;17.70;91.80;;;;;;4988627;28;20221;-71
2022/06/12 01:20:19;;;;;;;8.95;6.30;;;17.60;92.40;;;;;;4971905;28;20029;-73
2022/06/12 01:23:32;;;;;;;11.18;6.03;;;17.60;92.20;;;;;;4956274;28;20037;-71
2022/06/12 01:26:53;;;;;;;9.25;6.15;;;17.60;92.30;;;;;;4968870;28;20034;-71
2022/06/12 01:29:29;;;;;;;7.07;5.68;;;17.50;92.20;;;;;;4968088;28;20050;-71
2022/06/12 01:32:03;;;;;;;9.18;7.00;;;17.40;91.80;;;;;;4984536;28;20029;-71
2022/06/12 01:34:58;;;;;;;9.60;6.18;;;17.40;92.30;;;;;;4983978;28;20415;-71
2022/06/12 01:37:50;;;;;;;7.78;5.80;;;17.40;92.40;;;;;;4984434;28;20023;-71
2022/06/12 01:40:32;;;;;;;7.70;6.60;;;17.30;92.30;;;;;;4983862;28;20229;-71
2022/06/12 01:43:20;;;;;;;8.60;6.57;;;17.30;92.30;;;;;;4984056;28;20027;-71
2022/06/12 01:46:19;;;;;;;10.88;6.63;;;17.30;92.70;;;;;;4983792;28;20026;-71
2022/06/12 01:48:58;;;;;;;8.18;6.43;;;17.20;92.40;;;;;;4965834;28;20026;-71
2022/06/12 01:52:04;;;;;;;6.45;5.53;;;17.20;92.60;;;;;;4988416;28;20030;-71
2022/06/12 01:54:46;;;;;;;8.43;6.18;;;17.20;92.50;;;;;;4974251;28;20029;-71
2022/06/12 01:57:50;;;;;;;10.23;5.78;;;17.20;93.10;;;;;;4972857;28;20029;-71
2022/06/12 02:00:20;;;;;;;7.63;6.32;;;17.20;93.00;;;;;;4987268;28;20030;-71
2022/06/12 02:03:06;;;;;;;6.82;5.72;;;17.10;92.70;;;;;;4971216;28;20094;-71
2022/06/12 02:06:00;;;;;;;8.40;5.93;;;17.10;93.00;;;;;;4957686;28;20034;-70
2022/06/12 02:08:44;;;;;;;8.93;6.22;;;17.10;93.10;;;;;;4982277;28;20034;-71
2022/06/12 02:14:15;;;;;;;10.07;6.75;;;17.00;92.90;;;;;;4976928;28;20033;-71
2022/06/12 02:16:45;;;;;;;7.53;5.43;;;17.00;93.40;;;;;;4954701;28;20026;-71
2022/06/12 02:19:17;;;;;;;7.10;5.72;;;16.90;93.20;;;;;;4986647;28;20030;-71
2022/06/12 02:21:57;;;;;;;8.77;5.90;;;16.90;93.30;;;;;;4987395;28;20315;-71
2022/06/12 02:24:29;;;;;;;10.10;5.75;;;16.90;93.30;;;;;;4970628;28;20042;-70
2022/06/12 02:27:10;;;;;;;7.93;5.68;;;16.90;93.50;;;;;;4970386;28;20018;-71
2022/06/12 02:29:56;;;;;;;9.55;6.03;;;16.90;93.50;;;;;;4987104;28;20069;-70
2022/06/12 02:32:32;;;;;;;8.20;6.28;;;16.90;93.10;;;;;;4968908;28;20038;-71
2022/06/12 02:35:10;;;;;;;8.77;6.20;;;16.80;93.20;;;;;;4967834;28;20061;-72
2022/06/12 02:37:41;;;;;;;10.30;6.30;;;16.80;93.30;;;;;;4952479;28;20343;-71
2022/06/12 02:40:15;;;;;;;8.40;6.22;;;16.80;93.70;;;;;;4966863;28;20034;-71
2022/06/12 02:42:43;;;;;;;7.13;6.07;;;16.80;93.50;;;;;;4967596;28;20023;-71
2022/06/12 02:45:20;;;;;;;7.45;5.82;;;16.70;93.40;;;;;;4966664;28;20383;-71
2022/06/12 02:47:46;;;;;;;8.05;6.20;;;16.70;93.20;;;;;;4967899;28;20026;-70
2022/06/12 02:50:14;;;;;;;9.15;6.30;;;16.70;93.60;;;;;;4981671;28;20045;-71
2022/06/12 02:53:19;;;;;;;8.20;6.00;;;16.70;93.30;;;;;;4982743;28;20065;-71
2022/06/12 02:55:59;;;;;;;7.13;6.05;;;16.60;93.50;;;;;;4982828;28;20073;-70
2022/06/12 02:58:28;;;;;;;7.80;5.55;;;16.60;93.40;;;;;;4982801;28;20053;-70
2022/06/12 03:01:02;;;;;;;7.93;6.30;;;16.60;93.50;;;;;;4985088;28;20026;-70
2022/06/12 03:03:36;;;;;;;5.90;5.30;;;16.60;93.40;;;;;;4954118;28;20288;-70
2022/06/12 03:06:03;;;;;;;7.57;6.07;;;16.60;93.70;;;;;;4970008;28;20030;-70
2022/06/12 03:08:34;;;;;;;10.23;5.80;;;16.60;93.70;;;;;;4985931;28;20094;-71
2022/06/12 03:11:21;;;;;;;8.90;6.43;;;16.50;93.60;;;;;;4950943;28;20097;-71
2022/06/12 03:13:51;;;;;;;9.52;6.28;;;16.50;93.70;;;;;;4965806;28;20026;-71
2022/06/12 03:16:30;;;;;;;6.30;5.05;;;16.50;93.70;;;;;;4998082;28;20218;-70
2022/06/12 03:19:09;;;;;;;8.20;6.25;;;16.40;93.80;;;;;;4968077;28;20356;-70
2022/06/12 03:21:58;;;;;;;6.47;5.10;;;16.40;93.80;;;;;;4982536;28;20035;-71
2022/06/12 03:25:02;;;;;;;7.45;6.13;;;16.40;93.70;;;;;;4982930;28;20026;-71
2022/06/12 03:27:41;;;;;;;8.05;6.05;;;16.30;93.80;;;;;;4985518;28;20348;-70
2022/06/12 03:30:44;;;;;;;7.80;5.72;;;16.30;93.90;;;;;;4985322;28;20030;-71
2022/06/12 03:33:37;;;;;;;7.57;6.20;;;16.30;94.00;;;;;;4959137;28;20038;-71
2022/06/12 03:36:07;;;;;;;8.35;6.25;;;16.30;94.10;;;;;;4988448;28;20097;-72
2022/06/12 03:38:47;;;;;;;6.68;5.30;;;16.30;94.20;;;;;;4985926;28;20034;-71
2022/06/12 03:41:59;;;;;;;8.27;5.63;;;16.20;94.00;;;;;;4971193;28;20174;-70
2022/06/12 03:44:43;;;;;;;7.35;5.53;;;16.20;94.30;;;;;;4982676;28;20053;-70
2022/06/12 03:47:38;;;;;;;7.82;5.45;;;16.20;94.10;;;;;;4971633;28;20022;-70
2022/06/12 03:50:16;;;;;;;8.30;5.25;;;16.20;94.50;;;;;;4947815;28;20042;-70
2022/06/12 03:53:25;;;;;;;8.18;6.18;;;16.20;94.60;;;;;;4972445;28;20048;-71
2022/06/12 03:59:16;;;;;;;6.63;5.72;;;16.10;94.20;;;;;;4965589;28;20460;-70
2022/06/12 04:01:42;;;;;;;8.43;5.75;;;16.20;94.40;;;;;;4974377;28;20097;-71
2022/06/12 04:04:08;;;;;;;8.25;6.60;;;16.10;94.30;;;;;;4973044;28;20026;-70
2022/06/12 04:06:34;;;;;;;6.95;5.85;;;16.10;94.60;;;;;;4973018;28;20094;-71
2022/06/12 04:09:05;;;;;;;7.87;5.87;;;16.10;94.60;;;;;;4989116;28;20236;-71
2022/06/12 04:11:33;;;;;;;6.57;5.53;;;16.10;95.00;;;;;;4973984;28;20022;-70
2022/06/12 04:13:59;;;;;;;9.50;5.72;;;16.10;94.50;;;;;;4989030;28;20034;-71
2022/06/12 04:16:40;;;;;;;10.03;6.03;;;16.10;94.80;;;;;;4972684;28;20018;-71
2022/06/12 04:19:10;;;;;;;9.05;5.60;;;16.10;95.10;;;;;;4973423;28;20531;-71
2022/06/12 04:21:54;;;;;;;8.00;5.53;;;16.10;95.10;;;;;;4973286;28;20026;-71
2022/06/12 04:24:49;;;;;;;8.48;5.78;;;16.20;95.20;;;;;;4974690;28;20216;-71
2022/06/12 04:27:20;;;;;;;10.07;6.35;;;16.20;95.10;;;;;;4975478;28;20025;-71
2022/06/12 04:29:54;;;;;;;8.45;5.82;;;16.20;94.80;;;;;;4973403;28;20030;-71
2022/06/12 04:32:20;;;;;;;8.43;5.68;;;16.20;94.70;;;;;;5005780;28;20022;-71
2022/06/12 04:34:45;;;;;;;6.63;5.80;;;16.20;94.80;;;;;;4988490;28;20053;-72
2022/06/12 04:37:16;;;;;;;8.20;5.53;;;16.30;94.80;;;;;;4972773;28;20057;-72
2022/06/12 04:39:42;;;;;;;9.43;5.18;;;16.30;94.90;;;;;;4972927;28;20142;-72
2022/06/12 04:42:08;;;;;;;8.07;5.33;;;16.30;94.50;;;;;;4972432;28;20102;-72
2022/06/12 04:44:34;;;;;;;6.47;5.38;;;16.40;94.70;;;;;;4999428;28;20022;-72
2022/06/12 04:47:00;;;;;;;6.00;5.17;;;16.50;94.60;;;;;;4983436;28;20030;-71
2022/06/12 04:49:30;;;;;;;6.72;5.70;;;16.60;94.40;;;;;;4955852;28;20077;-72
2022/06/12 04:51:57;;;;;;;8.57;5.53;;;16.80;93.90;;;;;;4972727;28;20031;-72
2022/06/12 04:54:23;;;;;;;5.95;5.25;;;16.90;93.80;;;;;;4988061;28;20037;-72
2022/06/12 04:56:49;;;;;;;9.80;5.43;;;17.00;93.90;;;;;;4988349;28;20030;-72
2022/06/12 04:59:16;;;;;;;6.90;5.20;;;17.00;93.90;;;;;;5008589;28;20264;-71
2022/06/12 05:01:42;;;;;;;;;;;17.10;93.90;;;;;;4988081;28;20028;-72
2022/06/12 05:04:07;;;;;;;6.90;5.30;;;17.10;94.20;;;;;;4987467;28;19913;-71
2022/06/12 05:06:34;;;;;;;7.53;5.00;;;17.10;94.30;;;;;;5005464;28;20229;-71
2022/06/12 05:09:00;;;;;;;7.00;5.05;;;17.20;93.90;;;;;;5005393;28;20037;-71
2022/06/12 05:11:26;;;;;;;8.15;5.38;;;17.10;93.10;;;;;;4987923;28;20045;-71
2022/06/12 05:13:52;;;;;;;8.97;5.23;;;17.00;93.00;;;;;;5005070;28;20023;-71
2022/06/12 05:16:35;;;;;;;11.70;5.90;;;16.90;93.00;;;;;;5003515;28;20030;-71
2022/06/12 05:19:02;;;;;;;7.60;5.35;;;16.90;93.10;;;;;;4987847;28;20042;-71
2022/06/12 05:21:30;;;;;;;8.02;5.68;;;16.80;93.20;;;;;;4987666;28;20042;-71
2022/06/12 05:23:56;;;;;;;7.15;5.20;;;16.90;93.30;;;;;;4987679;28;20045;-72
2022/06/12 05:26:22;;;;;;;6.40;5.60;;;16.90;93.30;;;;;;4987141;28;20077;-71
2022/06/12 05:28:48;;;;;;;8.43;6.00;;;17.00;94.10;;;;;;4987633;28;20225;-72
2022/06/12 05:31:14;;;;;;;8.97;6.23;;;17.00;94.50;;;;;;5004764;28;20029;-72
2022/06/12 05:33:40;;;;;;;8.10;6.53;;;17.10;93.20;;;;;;4987678;28;20026;-72
2022/06/12 05:36:06;;;;;;;8.93;5.93;;;17.00;93.00;;;;;;5004793;28;20224;-72
2022/06/12 05:38:32;;;;;;;8.50;6.28;;;17.00;93.40;;;;;;4987539;28;20054;-71
2022/06/12 05:40:58;;;;;;;7.70;5.95;;;17.00;93.30;;;;;;4987375;28;20094;-71
2022/06/12 05:43:24;;;;;;;7.00;5.57;;;17.10;93.50;;;;;;4987331;28;20343;-71
2022/06/12 05:45:49;;;;;;;9.07;6.30;;;17.20;93.80;;;;;;5004345;28;20224;-71
2022/06/12 05:48:18;;;;;;;9.07;6.90;;;17.20;93.70;;;;;;5004608;28;20089;-74
2022/06/12 05:51:12;;;;;;;8.38;6.22;;;17.20;93.10;;;;;;4954994;28;20056;-72
2022/06/12 05:53:38;;;;;;;10.07;6.80;;;17.30;93.10;;;;;;5002887;28;20045;-71
2022/06/12 05:56:13;;;;;;;8.30;6.83;;;17.30;93.40;;;;;;4994426;28;20026;-72
2022/06/12 05:58:39;;;;;;;8.38;5.72;;;17.30;93.40;;;;;;4987813;28;20397;-72
2022/06/12 06:01:07;;;;;;;10.73;6.50;;;17.40;93.40;;;;;;5003299;28;20030;-73
2022/06/12 06:03:33;;;;;;;8.75;6.43;;;17.50;93.40;;;;;;5002848;28;20277;-72
2022/06/12 06:05:59;;;;;;;9.05;6.30;;;17.60;93.50;;;;;;5004191;28;20024;-69
2022/06/12 06:08:24;;;;;;;9.00;6.37;;;17.60;93.80;;;;;;4967633;28;20058;-69
2022/06/12 06:10:50;;;;;;;8.20;5.97;;;17.70;93.10;;;;;;4997425;28;20233;-70
2022/06/12 06:13:16;;;;;;;7.40;5.67;;;17.80;92.80;;;;;;5003425;28;20093;-71
2022/06/12 06:15:42;;;;;;;6.17;5.57;;;17.80;93.00;;;;;;4985834;28;20057;-69
2022/06/12 06:18:08;;;;;;;6.85;6.00;;;17.90;93.20;;;;;;4986415;28;20026;-70
2022/06/12 06:20:36;;;;;;;7.63;5.80;;;18.00;92.30;;;;;;4986081;28;20053;-70
2022/06/12 06:23:01;;;;;;;7.97;5.50;;;18.00;92.40;;;;;;5003567;28;20018;-70
2022/06/12 06:25:28;;;;;;;8.53;6.47;;;18.10;92.20;;;;;;5003230;28;20037;-70
2022/06/12 06:27:54;;;;;;;;;;;18.20;91.90;;;;;;4999609;28;20029;-69
2022/06/12 06:30:21;;;;;;;8.52;5.68;;;18.30;92.00;;;;;;4993465;28;19913;-70
2022/06/12 06:32:46;;;;;;;6.93;5.47;;;18.30;92.00;;;;;;5003556;28;20327;-69
2022/06/12 06:35:12;;;;;;;10.43;5.93;;;18.40;92.10;;;;;;5003659;28;20045;-70
2022/06/12 06:37:38;;;;;;;10.03;5.80;;;18.50;91.90;;;;;;4986494;28;20022;-70
2022/06/12 06:40:05;;;;;;;8.50;5.53;;;18.60;91.50;;;;;;5003614;28;20057;-70
2022/06/12 06:42:31;;;;;;;11.20;5.72;;;18.70;91.30;;;;;;5003069;28;20324;-69
2022/06/12 06:47:41;;;;;;;8.13;5.72;;;18.80;91.30;;;;;;4974637;28;20033;-70
2022/06/12 06:50:08;;;;;;;8.30;6.00;;;19.00;91.10;;;;;;5003414;28;20274;-68
2022/06/12 06:52:34;;;;;;;9.85;6.18;;;19.00;90.80;;;;;;4953665;28;20026;-70
2022/06/12 06:55:01;;;;;;;8.18;5.55;;;19.10;90.70;;;;;;4985891;28;20028;-70
2022/06/12 06:57:26;;;;;;;6.57;5.80;;;19.20;91.00;;;;;;4985493;28;20034;-70
2022/06/12 06:59:52;;;;;;;7.90;5.90;;;19.30;91.00;;;;;;4985703;28;20096;-70
2022/06/12 07:02:19;;;;;;;;;;;19.40;91.20;;;;;;5003294;28;20054;-73
2022/06/12 07:04:45;;;;;;;8.73;5.45;;;19.50;90.70;;;;;;4985347;28;20148;-77
2022/06/12 07:07:10;;;;;;;8.13;5.87;;;19.50;90.40;;;;;;4985187;28;20025;-73
2022/06/12 07:09:40;;;;;;;9.30;5.63;;;19.60;90.60;;;;;;4985332;28;20089;-74
2022/06/12 07:12:07;;;;;;;7.25;5.63;;;19.70;90.30;;;;;;5000528;28;20025;-73
2022/06/12 07:14:32;;;;;;;10.60;6.22;;;19.80;90.20;;;;;;5001432;28;20026;-74
2022/06/12 07:16:59;;;;;;;9.23;5.83;;;19.80;90.50;;;;;;4970083;28;20267;-74
2022/06/12 07:19:25;;;;;;;7.90;5.97;;;19.90;91.00;;;;;;5001772;28;20045;-73
2022/06/12 07:21:51;;;;;;;7.50;5.70;;;20.00;90.50;;;;;;5004917;28;20027;-73
2022/06/12 07:24:17;;;;;;;8.57;5.07;;;20.00;90.50;;;;;;4972606;28;20033;-73
2022/06/12 07:26:45;;;;;;;7.40;5.30;;;20.00;90.40;;;;;;4985350;28;20064;-73
2022/06/12 07:29:14;;;;;;;8.65;5.75;;;20.10;90.10;;;;;;5005454;28;20041;-72
2022/06/12 07:31:39;;;;;;;9.30;5.50;;;20.20;90.00;;;;;;5009719;28;20014;-71
2022/06/12 07:34:05;;;;;;;9.57;5.23;;;20.30;89.80;;;;;;5011275;28;20021;-72
2022/06/12 07:36:31;;;;;;;8.57;5.70;;;20.40;90.30;;;;;;5015039;28;20018;-71
2022/06/12 07:38:57;;;;;;;9.97;6.13;;;20.50;90.00;;;;;;4985854;28;20033;-71
2022/06/12 07:41:23;;;;;;;8.25;5.55;;;20.60;89.70;;;;;;4987632;28;20045;-71
2022/06/12 07:43:49;;;;;;;7.03;5.20;;;20.70;90.00;;;;;;5011497;28;20060;-71
2022/06/12 07:46:17;;;;;;;9.68;5.75;;;20.70;90.30;;;;;;5008682;28;20228;-70
2022/06/12 07:48:44;;;;;;;8.38;5.35;;;20.80;90.50;;;;;;5000965;28;20042;-71
2022/06/12 07:51:11;;;;;;;;;;;20.90;89.50;;;;;;4978918;28;20383;-71
2022/06/12 07:53:38;;;;;;;7.10;5.07;;;20.90;89.10;;;;;;5006847;28;19925;-71
2022/06/12 07:56:05;;;;;;;7.07;4.85;;;21.00;86.30;;;;;;4987071;28;20053;-71
2022/06/12 07:58:30;;;;;;;;;;;21.20;85.20;;;;;;4996110;28;20129;-71
2022/06/12 08:00:59;;;;;;;5.47;4.43;;;21.30;86.70;;;;;;4980164;28;19914;-71
2022/06/12 08:03:25;;;;;;;5.25;4.60;;;21.40;84.40;;;;;;4970864;28;20018;-71
2022/06/12 08:05:50;;;;;;;5.10;4.05;;;21.40;83.60;;;;;;4994055;28;20023;-71
2022/06/12 08:08:16;;;;;;;7.07;4.37;;;21.50;83.00;;;;;;5004042;28;20026;-70
2022/06/12 08:10:42;;;;;;;6.47;4.30;;;21.50;83.60;;;;;;4994021;28;20061;-70
2022/06/12 08:13:10;;;;;;;6.97;4.57;;;21.60;83.60;;;;;;4987665;28;20383;-69
2022/06/12 08:15:36;;;;;;;9.00;5.13;;;21.70;83.70;;;;;;5002425;28;20294;-69
2022/06/12 08:18:04;;;;;;;6.03;4.47;;;21.80;84.30;;;;;;5002215;28;20057;-68
2022/06/12 08:20:30;;;;;;;9.00;4.65;;;21.80;84.20;;;;;;4968016;28;20049;-69
2022/06/12 08:23:26;;;;;;;7.45;4.65;;;21.90;82.90;;;;;;4984137;28;20022;-69
2022/06/12 08:25:57;;;;;;;5.97;3.88;;;22.00;80.30;;;;;;4973739;28;20030;-69
2022/06/12 08:28:25;;;;;;;6.00;4.45;;;22.20;79.20;;;;;;5005963;28;20033;-69
2022/06/12 08:30:51;;;;;;;6.00;4.20;;;22.30;80.40;;;;;;4975736;28;20034;-70
2022/06/12 08:33:17;;;;;;;4.22;3.90;;;22.30;80.60;;;;;;4984586;28;20036;-70
2022/06/12 08:35:42;;;;;;;6.43;3.63;;;22.40;80.20;;;;;;4967643;28;20045;-70
2022/06/12 08:38:08;;;;;;;4.23;3.63;;;22.40;80.30;;;;;;4986180;28;20284;-70
2022/06/12 08:40:46;;;;;;;4.83;3.40;;;22.50;79.90;;;;;;5012957;28;20025;-70
2022/06/12 08:43:42;;;;;;;4.43;3.47;;;22.50;80.00;;;;;;5001792;28;20387;-70
2022/06/12 08:46:43;;;;;;;7.68;3.67;;;22.50;79.50;;;;;;5010524;28;20072;-69
2022/06/12 08:49:48;;;;;;;7.75;3.70;;;22.70;76.70;;;;;;4977509;28;20053;-69
2022/06/12 08:52:19;;;;;;;4.43;3.28;;;22.90;77.00;;;;;;4997555;28;20070;-70
2022/06/12 08:55:04;;;;;;;5.57;2.92;;;23.10;75.80;;;;;;5015681;28;20030;-69
2022/06/12 08:57:40;;;;;;;3.90;2.92;;;23.20;74.70;;;;;;4976496;28;20363;-70
2022/06/12 09:00:21;;;;;;;5.55;2.97;;;23.30;74.60;;;;;;4972494;28;20034;-70
2022/06/12 09:02:47;;;;;;;2.92;2.60;;;23.40;73.40;;;;;;4980776;28;20085;-70
2022/06/12 09:05:19;;;;;;;4.68;3.10;;;23.40;75.10;;;;;;4955950;28;20309;-69
2022/06/12 09:07:50;;;;;;;9.13;3.95;;;23.40;75.30;;;;;;4985944;28;20214;-70
2022/06/12 09:10:23;;;;;;;7.70;4.25;;;23.50;75.40;;;;;;5001344;28;20085;-70
2022/06/12 09:13:16;;;;;;;5.40;2.85;;;23.60;75.50;;;;;;4970828;28;20025;-70
2022/06/12 09:16:09;;;;;;;4.43;3.25;;;23.70;73.90;;;;;;4995078;28;20061;-71
2022/06/12 09:19:08;;;;;;;6.22;3.10;;;23.80;76.00;;;;;;4971250;28;20026;-70
2022/06/12 09:22:09;;;;;;;5.15;3.20;;;23.80;75.30;;;;;;4970713;28;20069;-70
2022/06/12 09:24:57;;;;;;;4.30;3.15;;;23.70;75.80;;;;;;4973976;28;20030;-70
2022/06/12 09:27:55;;;;;;;5.53;2.60;;;23.50;74.60;;;;;;4987289;28;20030;-70
2022/06/12 09:30:49;;;;;;;7.43;2.97;;;23.60;73.10;;;;;;4953395;28;20030;-70
2022/06/12 09:33:37;;;;;;;8.88;3.08;;;23.60;73.10;;;;;;4982299;28;20026;-70
2022/06/12 09:36:41;;;;;;;3.58;2.30;;;23.60;72.20;;;;;;4971398;28;20034;-69
2022/06/12 09:39:46;;;;;;;4.40;1.92;;;23.80;69.40;;;;;;4983671;28;20213;-70
2022/06/12 09:42:21;;;;;;;3.65;2.05;;;23.80;71.40;;;;;;4970335;28;20037;-70
2022/06/12 09:44:52;;;;;;;5.63;2.45;;;23.80;67.80;;;;;;4983587;28;20026;-70
2022/06/12 09:47:38;;;;;;;5.03;2.40;;;23.90;68.30;;;;;;5006234;28;20033;-69
2022/06/12 09:50:28;;;;;;;4.40;2.05;;;24.00;65.40;;;;;;5003202;28;20398;-69
2022/06/12 09:53:10;;;;;;;4.95;1.75;;;24.00;64.10;;;;;;4996725;28;20022;-68
2022/06/12 09:55:47;;;;;;;2.65;2.13;;;24.00;65.80;;;;;;4970970;28;20022;-69
2022/06/12 09:58:26;;;;;;;4.55;2.10;;;24.10;64.10;;;;;;4987083;28;20030;-69
2022/06/12 10:01:01;;;;;;;4.05;2.08;;;24.10;65.10;;;;;;4971428;28;20190;-69
2022/06/12 10:03:54;;;;;;;5.18;2.17;;;24.20;65.30;;;;;;4956528;28;20029;-69
2022/06/12 10:06:43;;;;;;;3.45;2.00;;;24.30;64.50;;;;;;4970335;28;20018;-69
2022/06/12 10:09:19;;;;;;;4.45;2.42;;;24.60;63.90;;;;;;4979459;28;20058;-69
2022/06/12 10:12:00;;;;;;;3.83;2.03;;;24.60;64.40;;;;;;4988225;28;20321;-70
2022/06/12 10:14:39;;;;;;;5.35;2.50;;;24.60;63.40;;;;;;4972066;28;20085;-69
2022/06/12 10:17:26;;;;;;;5.40;2.47;;;24.60;63.90;;;;;;4985617;28;20030;-69
2022/06/12 10:20:07;;;;;;;5.93;2.00;;;24.60;64.20;;;;;;4969003;28;20050;-69
2022/06/12 10:22:46;;;;;;;5.15;2.03;;;24.70;63.80;;;;;;4973088;28;20026;-68
2022/06/12 10:25:27;;;;;;;3.70;1.80;;;24.70;61.80;;;;;;4951602;28;20093;-69
2022/06/12 10:28:03;;;;;;;4.18;1.95;;;24.70;61.40;;;;;;4985826;28;20034;-69
2022/06/12 10:30:55;;;;;;;3.25;2.30;;;24.70;63.00;;;;;;4986503;28;20026;-69
2022/06/12 10:33:30;;;;;;;3.08;1.80;;;24.70;62.50;;;;;;4987880;28;20220;-70
2022/06/12 10:36:02;;;;;;;5.53;2.10;;;24.80;61.10;;;;;;5002795;28;20018;-69
2022/06/12 10:38:36;;;;;;;2.15;1.60;;;24.80;60.10;;;;;;4970966;28;20029;-69
2022/06/12 10:41:05;;;;;;;5.60;2.63;;;24.90;61.40;;;;;;4970907;28;20202;-69
2022/06/12 10:43:33;;;;;;;2.70;1.75;;;25.00;62.30;;;;;;4970083;28;20229;-69
2022/06/12 10:46:30;;;;;;;4.97;2.40;;;25.00;61.10;;;;;;4970123;28;20025;-70
2022/06/12 10:49:13;;;;;;;3.83;2.30;;;25.00;61.20;;;;;;5016888;28;20022;-69
2022/06/12 10:51:40;;;;;;;4.40;1.85;;;25.10;60.10;;;;;;4985805;28;20041;-69
2022/06/12 10:54:19;;;;;;;;;;;25.10;60.90;;;;;;4970372;28;20026;-69
2022/06/12 10:56:53;;;;;;;3.22;1.90;;;25.10;62.00;;;;;;5002545;28;20078;-69
2022/06/12 10:59:36;;;;;;;3.65;1.92;;;25.30;58.90;;;;;;5003461;28;20026;-69
2022/06/12 11:02:07;;;;;;;3.40;1.60;;;25.50;58.80;;;;;;4969768;28;20344;-69
2022/06/12 11:05:14;;;;;;;4.00;1.90;;;25.60;60.10;;;;;;5002950;28;20026;-70
2022/06/12 11:07:56;;;;;;;4.00;2.10;;;25.70;60.50;;;;;;4983937;28;20043;-70
2022/06/12 11:10:52;;;;;;;4.13;1.70;;;25.80;58.50;;;;;;4985188;28;20321;-69
2022/06/12 11:13:56;;;;;;;1.83;1.60;;;25.90;58.70;;;;;;4957923;28;20038;-70
2022/06/12 11:16:48;;;;;;;4.60;2.00;;;25.90;57.80;;;;;;4985605;28;20032;-70
2022/06/12 11:19:54;;;;;;;3.65;1.92;;;26.20;57.90;;;;;;4971440;28;20030;-70
2022/06/12 11:22:45;;;;;;;3.72;1.83;;;26.30;58.50;;;;;;4985554;28;20045;-70
2022/06/12 11:25:11;;;;;;;3.15;1.70;;;26.40;56.60;;;;;;4985651;28;20054;-70
2022/06/12 11:28:15;;;;;;;2.93;1.53;;;26.40;56.90;;;;;;5002684;28;20018;-70
2022/06/12 11:31:10;;;;;;;4.95;1.45;;;26.40;56.20;;;;;;4983567;28;20033;-70
2022/06/12 11:34:18;;;;;;;4.07;1.80;;;26.50;57.00;;;;;;5002586;28;20022;-70
2022/06/12 11:36:56;;;;;;;5.88;1.88;;;26.50;53.30;;;;;;4972979;28;20030;-70
2022/06/12 11:39:35;;;;;;;2.58;1.60;;;26.50;54.60;;;;;;5002726;28;20057;-70
2022/06/12 11:42:45;;;;;;;6.28;1.70;;;26.40;53.90;;;;;;4985373;28;20025;-70
2022/06/12 11:45:48;;;;;;;3.67;1.70;;;26.30;55.00;;;;;;5002574;28;20102;-70
2022/06/12 11:49:07;;;;;;;2.88;1.67;;;26.60;57.30;;;;;;5002645;28;20248;-70
2022/06/12 11:52:06;;;;;;;2.22;1.70;;;26.70;55.50;;;;;;4988143;28;20018;-70
2022/06/12 11:54:42;;;;;;;2.08;1.50;;;26.80;55.90;;;;;;5002504;28;20031;-70
2022/06/12 11:57:33;;;;;;;3.17;1.92;;;26.90;56.30;;;;;;5001766;28;20328;-70
2022/06/12 12:00:12;;;;;;;4.07;1.83;;;27.00;53.20;;;;;;4997489;28;20046;-70
2022/06/12 12:03:19;;;;;;;3.63;1.77;;;27.10;53.70;;;;;;4969657;28;20114;-70
2022/06/12 12:06:13;;;;;;;2.00;1.70;;;27.10;54.50;;;;;;4983000;28;20034;-70
2022/06/12 12:08:55;;;;;;;4.03;2.08;;;27.10;54.30;;;;;;4969033;28;20214;-70
2022/06/12 12:11:34;;;;;;;3.17;1.85;;;27.10;54.30;;;;;;4998966;28;20041;-70
2022/06/12 12:14:03;;;;;;;3.35;1.45;;;27.10;54.00;;;;;;4972175;28;20085;-70
2022/06/12 12:17:00;;;;;;;3.47;1.60;;;27.20;53.30;;;;;;5005883;28;20028;-71
2022/06/12 12:19:46;;;;;;;2.42;1.25;;;27.40;52.00;;;;;;4990131;28;20025;-71
2022/06/12 12:22:36;;;;;;;5.82;1.90;;;27.50;52.00;;;;;;4975444;28;20026;-71
2022/06/12 12:25:24;;;;;;;4.40;2.28;;;27.60;51.70;;;;;;4988913;28;20050;-70
2022/06/12 12:27:56;;;;;;;3.47;1.65;;;27.80;52.80;;;;;;4975775;28;20022;-70
2022/06/12 12:30:28;;;;;;;2.45;1.70;;;27.90;53.50;;;;;;4989316;28;20033;-71
2022/06/12 12:32:57;;;;;;;3.22;1.10;;;28.20;51.00;;;;;;4973158;28;20026;-70
2022/06/12 12:41:14;;;;;;;2.20;1.70;;;28.60;48.80;;;;;;4977935;28;20355;-70
2022/06/12 12:43:58;;;;;;;1.52;1.27;;;28.80;48.20;;;;;;4989568;28;20110;-70
2022/06/12 12:46:47;;;;;;;2.58;1.40;;;28.90;49.20;;;;;;4972949;28;20030;-70
2022/06/12 12:49:35;;;;;;;3.10;1.50;;;29.10;50.60;;;;;;4991833;28;20033;-70
2022/06/12 12:52:18;;;;;;;5.50;3.30;;;29.30;49.30;;;;;;4988578;28;20018;-70
2022/06/12 12:54:51;;;;;;;10.82;8.65;;;29.50;49.00;;;;;;4988000;28;20018;-70
2022/06/12 12:57:42;;;;;;;2.08;1.80;;;29.70;49.10;;;;;;4988225;28;20026;-69
2022/06/12 13:00:18;;;;;;;5.57;1.80;;;29.70;48.00;;;;;;4973015;28;20034;-69
2022/06/12 13:02:54;;;;;;;2.58;1.23;;;29.60;48.70;;;;;;4989337;28;20029;-69
2022/06/12 13:05:24;;;;;;;2.28;1.38;;;29.60;47.00;;;;;;4988244;28;20030;-70
2022/06/12 13:08:32;;;;;;;2.00;1.50;;;29.50;46.10;;;;;;4988583;28;20022;-70
2022/06/12 13:11:35;;;;;;;2.17;1.67;;;29.40;49.90;;;;;;4991317;28;20045;-70
2022/06/12 13:14:34;;;;;;;4.40;1.50;;;29.30;47.70;;;;;;4973085;28;20026;-70
2022/06/12 13:17:52;;;;;;;2.38;1.40;;;29.30;48.80;;;;;;4987999;28;20089;-70
2022/06/12 13:20:39;;;;;;;3.83;1.70;;;29.50;50.80;;;;;;4998191;28;20042;-70
2022/06/12 13:23:32;;;;;;;3.78;1.50;;;29.90;51.80;;;;;;4988513;28;20325;-70
2022/06/12 13:26:01;;;;;;;2.58;1.60;;;30.20;52.50;;;;;;4987742;28;20030;-70
2022/06/12 13:28:29;;;;;;;2.25;1.95;;;30.50;48.60;;;;;;4956609;28;20084;-70
2022/06/12 13:30:56;;;;;;;2.53;1.48;;;30.80;46.60;;;;;;4987977;28;20026;-70
2022/06/12 13:33:28;;;;;;;3.00;1.67;;;31.10;46.60;;;;;;4987415;28;20321;-70
2022/06/12 13:36:14;;;;;;;2.88;1.77;;;31.10;45.70;;;;;;4956224;28;20081;-70
2022/06/12 13:38:53;;;;;;;5.50;2.05;;;31.00;47.40;;;;;;5004861;28;20197;-71
2022/06/12 13:41:36;;;;;;;3.65;1.52;;;30.80;46.70;;;;;;4968116;28;20026;-71
2022/06/12 13:44:38;;;;;;;1.70;1.40;;;30.90;46.10;;;;;;4984100;28;20054;-71
2022/06/12 13:47:19;;;;;;;3.40;1.40;;;31.30;45.70;;;;;;4984401;28;20036;-71
2022/06/12 13:50:14;;;;;;;4.13;1.80;;;31.70;46.40;;;;;;4985152;28;20030;-71
2022/06/12 13:52:59;;;;;;;1.80;1.70;;;32.10;45.60;;;;;;4987586;28;20053;-71
2022/06/12 13:55:27;;;;;;;4.40;1.98;;;32.80;47.40;;;;;;4985969;28;20245;-70
2022/06/12 13:57:55;;;;;;;3.88;1.90;;;33.40;51.50;;;;;;4970789;28;20033;-70